TimeCST,TemperatureF,Dew PointF,Humidity,Sea Level PressureIn,VisibilityMPH,Wind Direction,Wind SpeedMPH,Gust SpeedMPH,PrecipitationIn,Events,Conditions,WindDirDegrees,DateUTC
12:13 AM,-27.4,-34.6,69,30.47,7.0,Calm,Calm,-,N/A,,Clear,0,2013-12-08 06:13:00
12:33 AM,-29.2,-34.6,75,30.47,10.0,Calm,Calm,-,N/A,,Clear,0,2013-12-08 06:33:00
12:53 AM,-27.4,-32.8,75,30.45,10.0,Calm,Calm,-,N/A,,Clear,0,2013-12-08 06:53:00
1:12 AM,-27.4,-32.8,75,30.43,10.0,Calm,Calm,-,N/A,,Clear,0,2013-12-08 07:12:00
1:31 AM,-27.4,-34.6,69,30.43,10.0,Calm,Calm,-,N/A,,Scattered Clouds,0,2013-12-08 07:31:00
1:53 AM,-27.4,-32.8,75,30.43,10.0,Calm,Calm,-,N/A,,Clear,0,2013-12-08 07:53:00
2:12 AM,-27.4,-34.6,69,30.43,10.0,Calm,Calm,-,N/A,,Clear,0,2013-12-08 08:12:00
2:33 AM,-27.4,-32.8,75,30.42,10.0,Calm,Calm,-,N/A,,Clear,0,2013-12-08 08:33:00
2:53 AM,-27.4,-32.8,75,30.41,10.0,Calm,Calm,-,N/A,,Clear,0,2013-12-08 08:53:00
3:13 AM,-27.4,-34.6,69,30.41,10.0,Calm,Calm,-,N/A,,Clear,0,2013-12-08 09:13:00
3:33 AM,-27.4,-32.8,75,30.39,10.0,Calm,Calm,-,N/A,,Scattered Clouds,0,2013-12-08 09:33:00
3:53 AM,-27.4,-32.8,75,30.38,10.0,Calm,Calm,-,N/A,,Mostly Cloudy,0,2013-12-08 09:53:00
4:13 AM,-27.4,-32.8,75,30.37,10.0,Calm,Calm,-,N/A,,Overcast,0,2013-12-08 10:13:00
4:33 AM,-25.6,-31.0,76,30.37,10.0,Calm,Calm,-,N/A,,Overcast,0,2013-12-08 10:33:00
4:52 AM,-25.6,-32.8,69,30.36,10.0,Calm,Calm,-,N/A,,Overcast,0,2013-12-08 10:52:00
5:13 AM,-25.6,-29.2,83,30.35,10.0,Calm,Calm,-,N/A,,Overcast,0,2013-12-08 11:13:00
5:33 AM,-23.8,-29.2,76,30.35,10.0,Calm,Calm,-,N/A,,Overcast,0,2013-12-08 11:33:00
5:53 AM,-22.0,-27.4,76,30.34,10.0,Calm,Calm,-,N/A,,Overcast,0,2013-12-08 11:53:00
6:13 AM,-20.2,-25.6,76,30.33,10.0,Calm,Calm,-,N/A,,Overcast,0,2013-12-08 12:13:00
6:32 AM,-18.4,-23.8,76,30.33,10.0,Calm,Calm,-,N/A,,Overcast,0,2013-12-08 12:32:00
6:53 AM,-18.4,-23.8,76,30.33,7.0,Calm,Calm,-,N/A,Snow,Light Snow,0,2013-12-08 12:53:00
7:12 AM,-16.6,-20.2,84,30.32,10.0,Calm,Calm,-,N/A,,Mostly Cloudy,0,2013-12-08 13:12:00
7:32 AM,-16.6,-22.0,76,30.31,10.0,Calm,Calm,-,N/A,,Mostly Cloudy,0,2013-12-08 13:32:00
7:53 AM,-16.6,-20.2,84,30.31,7.0,Calm,Calm,-,N/A,Snow,Light Snow,0,2013-12-08 13:53:00
8:13 AM,-16.6,-20.2,84,30.31,3.0,Calm,Calm,-,N/A,,Overcast,0,2013-12-08 14:13:00
8:33 AM,-14.8,-18.4,84,30.30,2.5,SE,3.5,-,N/A,,Overcast,140,2013-12-08 14:33:00
8:52 AM,-13.0,-16.6,84,30.30,2.0,SE,3.5,-,N/A,Snow,Light Snow,130,2013-12-08 14:52:00
9:13 AM,-11.2,-16.6,77,30.29,2.0,SE,3.5,-,N/A,,Haze,140,2013-12-08 15:13:00
9:32 AM,-11.2,-14.8,84,30.29,3.0,SSE,5.8,-,N/A,,Overcast,160,2013-12-08 15:32:00
9:52 AM,-9.4,-14.8,77,30.28,4.0,SSE,5.8,-,N/A,,Overcast,150,2013-12-08 15:52:00
10:12 AM,-9.4,-13.0,84,30.28,4.0,SSE,4.6,-,N/A,,Overcast,150,2013-12-08 16:12:00
10:33 AM,-7.6,-11.2,84,30.27,3.0,SE,3.5,-,N/A,,Overcast,140,2013-12-08 16:33:00
10:53 AM,-7.6,-9.4,92,30.26,5.0,SE,3.5,-,N/A,,Overcast,140,2013-12-08 16:53:00
11:13 AM,-5.8,-9.4,84,30.25,5.0,SE,5.8,-,N/A,,Mostly Cloudy,140,2013-12-08 17:13:00
11:32 AM,-4.0,-7.6,85,30.23,10.0,SE,6.9,-,N/A,,Scattered Clouds,140,2013-12-08 17:32:00
11:52 AM,-2.2,-5.8,85,30.21,10.0,SSE,6.9,-,N/A,,Clear,150,2013-12-08 17:52:00
12:12 PM,-0.4,-4.0,85,30.20,10.0,SE,6.9,-,N/A,,Clear,140,2013-12-08 18:12:00
12:33 PM,-0.4,-4.0,85,30.18,10.0,SE,9.2,-,N/A,,Scattered Clouds,140,2013-12-08 18:33:00
12:53 PM,1.4,-2.2,85,30.17,4.0,SE,5.8,-,N/A,,Mostly Cloudy,140,2013-12-08 18:53:00
1:13 PM,1.4,-2.2,85,30.16,7.0,SE,8.1,-,N/A,,Mostly Cloudy,140,2013-12-08 19:13:00
1:33 PM,3.2,-0.4,85,30.14,10.0,SE,8.1,-,N/A,,Mostly Cloudy,130,2013-12-08 19:33:00
1:53 PM,3.2,-2.2,78,30.13,5.0,SSE,8.1,-,N/A,,Haze,150,2013-12-08 19:53:00
2:12 PM,3.2,-0.4,85,30.12,7.0,SE,6.9,-,N/A,,Scattered Clouds,140,2013-12-08 20:12:00
2:33 PM,3.2,-0.4,85,30.12,4.0,SE,5.8,-,N/A,,Haze,140,2013-12-08 20:33:00
2:53 PM,3.2,-0.4,85,30.11,3.0,SE,5.8,-,N/A,,Overcast,140,2013-12-08 20:53:00
3:13 PM,5.0,1.4,85,30.11,1.8,SSE,4.6,-,N/A,Snow,Light Snow,150,2013-12-08 21:13:00
3:33 PM,5.0,1.4,85,30.10,4.0,SSE,5.8,-,N/A,Snow,Light Snow,150,2013-12-08 21:33:00
3:52 PM,5.0,1.4,85,30.10,2.5,SE,4.6,-,N/A,Snow,Light Snow,140,2013-12-08 21:52:00
4:13 PM,5.0,1.4,85,30.09,3.0,SE,4.6,-,N/A,,Overcast,130,2013-12-08 22:13:00
4:32 PM,5.0,1.4,85,30.09,4.0,SE,3.5,-,N/A,,Overcast,130,2013-12-08 22:32:00
4:53 PM,3.2,1.4,92,30.09,2.0,SE,3.5,-,N/A,Snow,Light Snow,140,2013-12-08 22:53:00
5:13 PM,3.2,1.4,92,30.08,4.0,Calm,Calm,-,N/A,Snow,Light Snow,0,2013-12-08 23:13:00
5:33 PM,3.2,1.4,92,30.08,5.0,SE,3.5,-,N/A,,Overcast,140,2013-12-08 23:33:00
5:52 PM,3.2,1.4,92,30.08,4.0,SE,3.5,-,N/A,Snow,Light Snow,140,2013-12-08 23:52:00
6:13 PM,3.2,1.4,92,30.07,4.0,SSE,4.6,-,N/A,,Overcast,150,2013-12-09 00:13:00
6:32 PM,3.2,-0.4,85,30.06,4.0,SSE,4.6,-,N/A,,Overcast,150,2013-12-09 00:32:00
6:53 PM,3.2,-0.4,85,30.06,7.0,Calm,Calm,-,N/A,,Overcast,0,2013-12-09 00:53:00
7:13 PM,1.4,-0.4,92,30.05,5.0,Calm,Calm,-,N/A,Snow,Light Snow,0,2013-12-09 01:13:00
7:32 PM,1.4,-0.4,92,30.05,10.0,Calm,Calm,-,N/A,,Overcast,0,2013-12-09 01:32:00
7:53 PM,-0.4,-2.2,92,30.05,10.0,Calm,Calm,-,N/A,,Overcast,0,2013-12-09 01:53:00
8:13 PM,-2.2,-5.8,85,30.05,4.0,Calm,Calm,-,N/A,Snow,Light Snow,0,2013-12-09 02:13:00
8:33 PM,-4.0,-5.8,92,30.04,4.0,Calm,Calm,-,N/A,Snow,Light Snow,0,2013-12-09 02:33:00
8:53 PM,-5.8,-7.6,92,30.04,1.8,Calm,Calm,-,N/A,Snow,Light Snow,0,2013-12-09 02:53:00
9:13 PM,-5.8,-7.6,92,30.02,3.0,Calm,Calm,-,N/A,Snow,Light Snow,0,2013-12-09 03:13:00
9:32 PM,-5.8,-9.4,84,30.02,2.0,Calm,Calm,-,N/A,Snow,Light Snow,0,2013-12-09 03:32:00
9:52 PM,-5.8,-7.6,92,30.02,2.0,Calm,Calm,-,N/A,Snow,Light Snow,0,2013-12-09 03:52:00
10:12 PM,-4.0,-7.6,85,30.01,5.0,Calm,Calm,-,N/A,Snow,Light Snow,0,2013-12-09 04:12:00
10:33 PM,-2.2,-5.8,85,30.00,2.5,Calm,Calm,-,N/A,Snow,Light Snow,0,2013-12-09 04:33:00
10:53 PM,-2.2,-5.8,85,30.00,1.5,Calm,Calm,-,N/A,Snow,Light Snow,0,2013-12-09 04:53:00
11:13 PM,-0.4,-4.0,85,29.99,2.0,Calm,Calm,-,N/A,Snow,Light Snow,0,2013-12-09 05:13:00
11:33 PM,1.4,-2.2,85,29.99,4.0,South,3.5,-,N/A,Snow,Light Snow,180,2013-12-09 05:33:00
11:53 PM,-0.4,-2.2,92,29.98,5.0,South,3.5,-,N/A,,Overcast,170,2013-12-09 05:53:00